sensor_id;sensor_type;location;lat;lon;timestamp;temperature;humidity
7028;DHT22;3555;53.248;10.336;2022-08-19T00:01:16;21.60;99.90
7028;DHT22;3555;53.248;10.336;2022-08-19T00:03:43;21.50;99.90
7028;DHT22;3555;53.248;10.336;2022-08-19T00:06:10;21.50;99.90
7028;DHT22;3555;53.248;10.336;2022-08-19T00:08:37;21.60;99.90
7028;DHT22;3555;53.248;10.336;2022-08-19T00:11:04;21.70;99.90
7028;DHT22;3555;53.248;10.336;2022-08-19T00:13:32;21.70;99.90
7028;DHT22;3555;53.248;10.336;2022-08-19T00:15:59;21.70;99.90
7028;DHT22;3555;53.248;10.336;2022-08-19T00:18:26;21.70;99.90
7028;DHT22;3555;53.248;10.336;2022-08-19T00:20:53;21.70;99.90
7028;DHT22;3555;53.248;10.336;2022-08-19T00:23:20;21.70;99.90
7028;DHT22;3555;53.248;10.336;2022-08-19T00:25:47;21.60;99.90
7028;DHT22;3555;53.248;10.336;2022-08-19T00:28:13;21.70;99.90
7028;DHT22;3555;53.248;10.336;2022-08-19T00:30:42;21.70;99.90
7028;DHT22;3555;53.248;10.336;2022-08-19T00:33:09;21.70;99.90
7028;DHT22;3555;53.248;10.336;2022-08-19T00:35:36;21.70;99.90
7028;DHT22;3555;53.248;10.336;2022-08-19T00:38:04;21.60;99.90
7028;DHT22;3555;53.248;10.336;2022-08-19T00:40:32;21.50;99.90
7028;DHT22;3555;53.248;10.336;2022-08-19T00:42:59;21.50;99.90
7028;DHT22;3555;53.248;10.336;2022-08-19T00:45:28;21.50;99.90
7028;DHT22;3555;53.248;10.336;2022-08-19T00:47:58;21.50;99.90
7028;DHT22;3555;53.248;10.336;2022-08-19T00:50:29;21.40;99.90
7028;DHT22;3555;53.248;10.336;2022-08-19T00:52:56;21.50;99.90
7028;DHT22;3555;53.248;10.336;2022-08-19T00:55:26;21.50;99.90
7028;DHT22;3555;53.248;10.336;2022-08-19T00:57:56;21.50;99.90
7028;DHT22;3555;53.248;10.336;2022-08-19T01:00:26;21.50;99.90
7028;DHT22;3555;53.248;10.336;2022-08-19T01:02:54;21.50;99.90
7028;DHT22;3555;53.248;10.336;2022-08-19T01:05:24;21.50;99.90
7028;DHT22;3555;53.248;10.336;2022-08-19T01:07:54;21.50;99.90
7028;DHT22;3555;53.248;10.336;2022-08-19T01:10:25;21.50;99.90
7028;DHT22;3555;53.248;10.336;2022-08-19T01:12:52;21.50;99.90
7028;DHT22;3555;53.248;10.336;2022-08-19T01:15:23;21.50;99.90
7028;DHT22;3555;53.248;10.336;2022-08-19T01:17:52;21.40;99.90
7028;DHT22;3555;53.248;10.336;2022-08-19T01:20:23;21.50;99.90
7028;DHT22;3555;53.248;10.336;2022-08-19T01:22:53;21.40;99.90
7028;DHT22;3555;53.248;10.336;2022-08-19T01:25:24;21.50;99.90
7028;DHT22;3555;53.248;10.336;2022-08-19T01:27:51;21.40;99.90
7028;DHT22;3555;53.248;10.336;2022-08-19T01:30:21;21.50;99.90
7028;DHT22;3555;53.248;10.336;2022-08-19T01:32:48;21.40;99.90
7028;DHT22;3555;53.248;10.336;2022-08-19T01:35:15;21.40;99.90
7028;DHT22;3555;53.248;10.336;2022-08-19T01:37:48;21.40;99.90
7028;DHT22;3555;53.248;10.336;2022-08-19T01:40:17;21.30;99.90
7028;DHT22;3555;53.248;10.336;2022-08-19T01:42:45;21.30;99.90
7028;DHT22;3555;53.248;10.336;2022-08-19T01:45:13;21.30;99.90
7028;DHT22;3555;53.248;10.336;2022-08-19T01:47:40;21.30;99.90
7028;DHT22;3555;53.248;10.336;2022-08-19T01:50:09;21.20;99.90
7028;DHT22;3555;53.248;10.336;2022-08-19T01:52:37;21.20;99.90
7028;DHT22;3555;53.248;10.336;2022-08-19T01:55:06;21.20;99.90
7028;DHT22;3555;53.248;10.336;2022-08-19T01:57:35;21.20;99.90
7028;DHT22;3555;53.248;10.336;2022-08-19T02:00:04;21.20;99.90
7028;DHT22;3555;53.248;10.336;2022-08-19T02:02:32;21.20;99.90
7028;DHT22;3555;53.248;10.336;2022-08-19T02:04:59;21.10;99.90
7028;DHT22;3555;53.248;10.336;2022-08-19T02:07:26;21.10;99.90
7028;DHT22;3555;53.248;10.336;2022-08-19T02:09:53;21.10;99.90
7028;DHT22;3555;53.248;10.336;2022-08-19T02:12:21;21.00;99.90
7028;DHT22;3555;53.248;10.336;2022-08-19T02:14:49;21.10;99.90
7028;DHT22;3555;53.248;10.336;2022-08-19T02:17:16;21.00;99.90
7028;DHT22;3555;53.248;10.336;2022-08-19T02:19:45;21.00;99.90
7028;DHT22;3555;53.248;10.336;2022-08-19T02:22:14;20.90;99.90
7028;DHT22;3555;53.248;10.336;2022-08-19T02:24:41;20.90;99.90
7028;DHT22;3555;53.248;10.336;2022-08-19T02:27:08;20.90;99.90
7028;DHT22;3555;53.248;10.336;2022-08-19T02:29:34;20.90;99.90
7028;DHT22;3555;53.248;10.336;2022-08-19T02:32:03;20.90;99.90
7028;DHT22;3555;53.248;10.336;2022-08-19T02:34:30;20.90;99.90
7028;DHT22;3555;53.248;10.336;2022-08-19T02:36:57;20.90;99.90
7028;DHT22;3555;53.248;10.336;2022-08-19T02:39:24;20.80;99.90
7028;DHT22;3555;53.248;10.336;2022-08-19T02:41:50;20.80;99.90
7028;DHT22;3555;53.248;10.336;2022-08-19T02:44:17;20.70;99.90
7028;DHT22;3555;53.248;10.336;2022-08-19T02:46:46;20.70;99.90
7028;DHT22;3555;53.248;10.336;2022-08-19T02:49:14;20.80;99.90
7028;DHT22;3555;53.248;10.336;2022-08-19T02:51:43;20.80;99.90
7028;DHT22;3555;53.248;10.336;2022-08-19T02:54:12;20.90;99.90
7028;DHT22;3555;53.248;10.336;2022-08-19T02:56:41;20.80;99.90
7028;DHT22;3555;53.248;10.336;2022-08-19T02:59:08;20.70;99.90
7028;DHT22;3555;53.248;10.336;2022-08-19T03:01:35;20.70;99.90
7028;DHT22;3555;53.248;10.336;2022-08-19T03:04:05;20.70;99.90
7028;DHT22;3555;53.248;10.336;2022-08-19T03:06:36;20.70;99.90
7028;DHT22;3555;53.248;10.336;2022-08-19T03:09:03;20.80;99.90
7028;DHT22;3555;53.248;10.336;2022-08-19T03:11:31;20.70;99.90
7028;DHT22;3555;53.248;10.336;2022-08-19T03:13:58;20.70;99.90
7028;DHT22;3555;53.248;10.336;2022-08-19T03:16:27;20.70;99.90
7028;DHT22;3555;53.248;10.336;2022-08-19T03:18:56;20.70;99.90
7028;DHT22;3555;53.248;10.336;2022-08-19T03:21:26;20.60;99.90
7028;DHT22;3555;53.248;10.336;2022-08-19T03:23:55;20.60;99.90
7028;DHT22;3555;53.248;10.336;2022-08-19T03:26:23;20.60;99.90
7028;DHT22;3555;53.248;10.336;2022-08-19T03:28:50;20.60;99.90
7028;DHT22;3555;53.248;10.336;2022-08-19T03:31:18;20.60;99.90
7028;DHT22;3555;53.248;10.336;2022-08-19T03:33:45;20.50;99.90
7028;DHT22;3555;53.248;10.336;2022-08-19T03:36:15;20.50;99.90
7028;DHT22;3555;53.248;10.336;2022-08-19T03:38:45;20.50;99.90
7028;DHT22;3555;53.248;10.336;2022-08-19T03:41:16;20.50;99.90
7028;DHT22;3555;53.248;10.336;2022-08-19T03:43:44;20.50;99.90
7028;DHT22;3555;53.248;10.336;2022-08-19T03:46:13;20.50;99.90
7028;DHT22;3555;53.248;10.336;2022-08-19T03:48:42;20.40;99.90
7028;DHT22;3555;53.248;10.336;2022-08-19T03:51:16;20.50;99.90
7028;DHT22;3555;53.248;10.336;2022-08-19T03:53:43;20.50;99.90
7028;DHT22;3555;53.248;10.336;2022-08-19T03:56:10;20.50;99.90
7028;DHT22;3555;53.248;10.336;2022-08-19T03:58:40;20.50;99.90
7028;DHT22;3555;53.248;10.336;2022-08-19T04:01:08;20.60;99.90
7028;DHT22;3555;53.248;10.336;2022-08-19T04:03:35;20.60;99.90
7028;DHT22;3555;53.248;10.336;2022-08-19T04:06:10;20.60;99.90
7028;DHT22;3555;53.248;10.336;2022-08-19T04:08:38;20.60;99.90
7028;DHT22;3555;53.248;10.336;2022-08-19T04:11:07;20.60;99.90
7028;DHT22;3555;53.248;10.336;2022-08-19T04:13:34;20.60;99.90
7028;DHT22;3555;53.248;10.336;2022-08-19T04:16:03;20.60;99.90
7028;DHT22;3555;53.248;10.336;2022-08-19T04:18:30;20.50;99.90
7028;DHT22;3555;53.248;10.336;2022-08-19T04:20:58;20.40;99.90
7028;DHT22;3555;53.248;10.336;2022-08-19T04:23:25;20.50;99.90
7028;DHT22;3555;53.248;10.336;2022-08-19T04:25:54;20.50;99.90
7028;DHT22;3555;53.248;10.336;2022-08-19T04:28:22;20.50;99.90
7028;DHT22;3555;53.248;10.336;2022-08-19T04:30:51;20.50;99.90
7028;DHT22;3555;53.248;10.336;2022-08-19T04:33:24;20.50;99.90
7028;DHT22;3555;53.248;10.336;2022-08-19T04:35:52;20.40;99.90
7028;DHT22;3555;53.248;10.336;2022-08-19T04:38:20;20.40;99.90
7028;DHT22;3555;53.248;10.336;2022-08-19T04:40:49;20.40;99.90
7028;DHT22;3555;53.248;10.336;2022-08-19T04:43:35;20.40;99.90
7028;DHT22;3555;53.248;10.336;2022-08-19T04:46:05;20.50;99.90
7028;DHT22;3555;53.248;10.336;2022-08-19T04:48:33;20.30;99.90
7028;DHT22;3555;53.248;10.336;2022-08-19T04:51:00;20.40;99.90
7028;DHT22;3555;53.248;10.336;2022-08-19T04:53:29;20.40;99.90
7028;DHT22;3555;53.248;10.336;2022-08-19T04:55:57;20.40;99.90
7028;DHT22;3555;53.248;10.336;2022-08-19T04:58:26;20.40;99.90
7028;DHT22;3555;53.248;10.336;2022-08-19T05:00:53;20.40;99.90
7028;DHT22;3555;53.248;10.336;2022-08-19T05:03:20;20.40;99.90
7028;DHT22;3555;53.248;10.336;2022-08-19T05:05:49;20.40;99.90
7028;DHT22;3555;53.248;10.336;2022-08-19T05:08:18;20.50;99.90
7028;DHT22;3555;53.248;10.336;2022-08-19T05:10:46;20.50;99.90
7028;DHT22;3555;53.248;10.336;2022-08-19T05:13:15;20.60;99.90
7028;DHT22;3555;53.248;10.336;2022-08-19T05:15:43;20.50;99.90
7028;DHT22;3555;53.248;10.336;2022-08-19T05:18:10;20.50;99.90
7028;DHT22;3555;53.248;10.336;2022-08-19T05:20:55;20.50;99.90
7028;DHT22;3555;53.248;10.336;2022-08-19T05:23:40;20.60;99.90
7028;DHT22;3555;53.248;10.336;2022-08-19T05:26:07;20.50;99.90
7028;DHT22;3555;53.248;10.336;2022-08-19T05:28:35;20.50;99.90
7028;DHT22;3555;53.248;10.336;2022-08-19T05:31:02;20.50;99.90
7028;DHT22;3555;53.248;10.336;2022-08-19T05:33:30;20.50;99.90
7028;DHT22;3555;53.248;10.336;2022-08-19T05:35:58;20.50;99.90
7028;DHT22;3555;53.248;10.336;2022-08-19T05:38:25;20.50;99.90
7028;DHT22;3555;53.248;10.336;2022-08-19T05:40:52;20.50;99.90
7028;DHT22;3555;53.248;10.336;2022-08-19T05:43:19;20.50;99.90
7028;DHT22;3555;53.248;10.336;2022-08-19T05:45:46;20.50;99.90
7028;DHT22;3555;53.248;10.336;2022-08-19T05:48:13;20.60;99.90
7028;DHT22;3555;53.248;10.336;2022-08-19T05:50:42;20.50;99.90
7028;DHT22;3555;53.248;10.336;2022-08-19T05:53:12;20.50;99.90
7028;DHT22;3555;53.248;10.336;2022-08-19T05:55:42;20.50;99.90
7028;DHT22;3555;53.248;10.336;2022-08-19T05:58:09;20.60;99.90
7028;DHT22;3555;53.248;10.336;2022-08-19T06:00:36;20.50;99.90
7028;DHT22;3555;53.248;10.336;2022-08-19T06:03:03;20.60;99.90
7028;DHT22;3555;53.248;10.336;2022-08-19T06:05:31;20.60;99.90
7028;DHT22;3555;53.248;10.336;2022-08-19T06:07:58;20.60;99.90
7028;DHT22;3555;53.248;10.336;2022-08-19T06:10:27;20.60;99.90
7028;DHT22;3555;53.248;10.336;2022-08-19T06:12:55;20.60;99.90
7028;DHT22;3555;53.248;10.336;2022-08-19T06:15:22;20.70;99.90
7028;DHT22;3555;53.248;10.336;2022-08-19T06:17:51;20.70;99.90
7028;DHT22;3555;53.248;10.336;2022-08-19T06:20:18;20.70;99.90
7028;DHT22;3555;53.248;10.336;2022-08-19T06:22:47;20.60;99.90
7028;DHT22;3555;53.248;10.336;2022-08-19T06:25:15;20.70;99.90
7028;DHT22;3555;53.248;10.336;2022-08-19T06:27:44;20.70;99.90
7028;DHT22;3555;53.248;10.336;2022-08-19T06:30:12;20.70;99.90
7028;DHT22;3555;53.248;10.336;2022-08-19T06:32:39;20.70;99.90
7028;DHT22;3555;53.248;10.336;2022-08-19T06:35:07;20.70;99.90
7028;DHT22;3555;53.248;10.336;2022-08-19T06:37:34;20.70;99.90
7028;DHT22;3555;53.248;10.336;2022-08-19T06:40:00;20.70;99.90
7028;DHT22;3555;53.248;10.336;2022-08-19T06:42:27;20.60;99.90
7028;DHT22;3555;53.248;10.336;2022-08-19T06:44:56;20.70;99.90
7028;DHT22;3555;53.248;10.336;2022-08-19T06:47:23;20.70;99.90
7028;DHT22;3555;53.248;10.336;2022-08-19T06:49:53;20.70;99.90
7028;DHT22;3555;53.248;10.336;2022-08-19T06:52:21;20.70;99.90
7028;DHT22;3555;53.248;10.336;2022-08-19T06:54:49;20.70;99.90
7028;DHT22;3555;53.248;10.336;2022-08-19T06:57:16;20.70;99.90
7028;DHT22;3555;53.248;10.336;2022-08-19T06:59:42;20.60;99.90
7028;DHT22;3555;53.248;10.336;2022-08-19T07:02:11;20.60;99.90
7028;DHT22;3555;53.248;10.336;2022-08-19T07:04:37;20.60;99.90
7028;DHT22;3555;53.248;10.336;2022-08-19T07:07:06;20.60;99.90
7028;DHT22;3555;53.248;10.336;2022-08-19T07:09:35;20.60;99.90
7028;DHT22;3555;53.248;10.336;2022-08-19T07:12:05;20.50;99.90
7028;DHT22;3555;53.248;10.336;2022-08-19T07:14:34;20.50;99.90
7028;DHT22;3555;53.248;10.336;2022-08-19T07:17:04;20.60;99.90
7028;DHT22;3555;53.248;10.336;2022-08-19T07:19:33;20.60;99.90
7028;DHT22;3555;53.248;10.336;2022-08-19T07:22:03;20.50;99.90
7028;DHT22;3555;53.248;10.336;2022-08-19T07:24:31;20.50;99.90
7028;DHT22;3555;53.248;10.336;2022-08-19T07:26:59;20.50;99.90
7028;DHT22;3555;53.248;10.336;2022-08-19T07:29:27;20.50;99.90
7028;DHT22;3555;53.248;10.336;2022-08-19T07:31:55;20.50;99.90
7028;DHT22;3555;53.248;10.336;2022-08-19T07:34:24;20.50;99.90
7028;DHT22;3555;53.248;10.336;2022-08-19T07:36:53;20.50;99.90
7028;DHT22;3555;53.248;10.336;2022-08-19T07:39:24;20.50;99.90
7028;DHT22;3555;53.248;10.336;2022-08-19T07:41:51;20.50;99.90
7028;DHT22;3555;53.248;10.336;2022-08-19T07:44:19;20.40;99.90
7028;DHT22;3555;53.248;10.336;2022-08-19T07:46:49;20.40;99.90
7028;DHT22;3555;53.248;10.336;2022-08-19T07:49:17;20.40;99.90
7028;DHT22;3555;53.248;10.336;2022-08-19T07:51:45;20.50;99.90
7028;DHT22;3555;53.248;10.336;2022-08-19T07:54:14;20.40;99.90
7028;DHT22;3555;53.248;10.336;2022-08-19T07:56:41;20.50;99.90
7028;DHT22;3555;53.248;10.336;2022-08-19T07:59:08;20.50;99.90
7028;DHT22;3555;53.248;10.336;2022-08-19T08:01:35;20.30;99.90
7028;DHT22;3555;53.248;10.336;2022-08-19T08:04:03;20.40;99.90
7028;DHT22;3555;53.248;10.336;2022-08-19T08:06:47;20.40;99.90
7028;DHT22;3555;53.248;10.336;2022-08-19T08:09:36;20.40;99.90
7028;DHT22;3555;53.248;10.336;2022-08-19T08:12:06;20.40;99.90
7028;DHT22;3555;53.248;10.336;2022-08-19T08:14:38;20.30;99.90
7028;DHT22;3555;53.248;10.336;2022-08-19T08:17:06;20.30;99.90
7028;DHT22;3555;53.248;10.336;2022-08-19T08:19:33;20.40;99.90
7028;DHT22;3555;53.248;10.336;2022-08-19T08:22:01;20.40;99.90
7028;DHT22;3555;53.248;10.336;2022-08-19T08:24:30;20.40;99.90
7028;DHT22;3555;53.248;10.336;2022-08-19T08:26:59;20.40;99.90
7028;DHT22;3555;53.248;10.336;2022-08-19T08:29:27;20.50;99.90
7028;DHT22;3555;53.248;10.336;2022-08-19T08:31:55;20.60;99.90
7028;DHT22;3555;53.248;10.336;2022-08-19T08:34:22;20.50;99.90
7028;DHT22;3555;53.248;10.336;2022-08-19T08:36:49;20.50;99.90
7028;DHT22;3555;53.248;10.336;2022-08-19T08:39:19;20.50;99.90
7028;DHT22;3555;53.248;10.336;2022-08-19T08:41:51;20.50;99.90
7028;DHT22;3555;53.248;10.336;2022-08-19T08:44:26;20.50;99.90
7028;DHT22;3555;53.248;10.336;2022-08-19T08:46:57;20.50;99.90
7028;DHT22;3555;53.248;10.336;2022-08-19T08:49:29;20.50;99.90
7028;DHT22;3555;53.248;10.336;2022-08-19T08:52:03;20.50;99.90
7028;DHT22;3555;53.248;10.336;2022-08-19T08:54:34;20.40;99.90
7028;DHT22;3555;53.248;10.336;2022-08-19T08:57:06;20.40;99.90
7028;DHT22;3555;53.248;10.336;2022-08-19T08:59:38;20.40;99.90
7028;DHT22;3555;53.248;10.336;2022-08-19T09:02:06;20.40;99.90
7028;DHT22;3555;53.248;10.336;2022-08-19T09:04:34;20.40;99.90
7028;DHT22;3555;53.248;10.336;2022-08-19T09:07:14;20.50;99.90
7028;DHT22;3555;53.248;10.336;2022-08-19T09:09:48;20.40;99.90
7028;DHT22;3555;53.248;10.336;2022-08-19T09:12:20;20.50;99.90
7028;DHT22;3555;53.248;10.336;2022-08-19T09:14:53;20.50;99.90
7028;DHT22;3555;53.248;10.336;2022-08-19T09:17:24;20.50;99.90
7028;DHT22;3555;53.248;10.336;2022-08-19T09:19:58;20.50;99.90
7028;DHT22;3555;53.248;10.336;2022-08-19T09:22:30;20.60;99.90
7028;DHT22;3555;53.248;10.336;2022-08-19T09:24:57;20.60;99.90
7028;DHT22;3555;53.248;10.336;2022-08-19T09:27:25;20.70;99.90
7028;DHT22;3555;53.248;10.336;2022-08-19T09:29:53;20.70;99.90
7028;DHT22;3555;53.248;10.336;2022-08-19T09:32:21;20.80;99.90
7028;DHT22;3555;53.248;10.336;2022-08-19T09:34:48;20.80;99.90
7028;DHT22;3555;53.248;10.336;2022-08-19T09:37:15;20.80;99.90
7028;DHT22;3555;53.248;10.336;2022-08-19T09:39:42;20.80;99.90
7028;DHT22;3555;53.248;10.336;2022-08-19T09:42:09;20.80;99.90
7028;DHT22;3555;53.248;10.336;2022-08-19T09:44:38;20.80;99.90
7028;DHT22;3555;53.248;10.336;2022-08-19T09:47:07;20.80;99.90
7028;DHT22;3555;53.248;10.336;2022-08-19T09:49:34;20.80;99.90
7028;DHT22;3555;53.248;10.336;2022-08-19T09:52:01;20.80;99.90
7028;DHT22;3555;53.248;10.336;2022-08-19T09:54:28;20.80;99.90
7028;DHT22;3555;53.248;10.336;2022-08-19T09:56:58;20.80;99.90
7028;DHT22;3555;53.248;10.336;2022-08-19T09:59:25;20.90;99.90
7028;DHT22;3555;53.248;10.336;2022-08-19T10:01:53;21.00;99.90
7028;DHT22;3555;53.248;10.336;2022-08-19T10:04:21;21.00;99.90
7028;DHT22;3555;53.248;10.336;2022-08-19T10:06:49;21.10;99.90
7028;DHT22;3555;53.248;10.336;2022-08-19T10:09:17;21.20;99.90
7028;DHT22;3555;53.248;10.336;2022-08-19T10:11:45;21.20;99.90
7028;DHT22;3555;53.248;10.336;2022-08-19T10:14:13;21.10;99.90
7028;DHT22;3555;53.248;10.336;2022-08-19T10:16:42;21.10;99.90
7028;DHT22;3555;53.248;10.336;2022-08-19T10:19:09;21.20;99.90
7028;DHT22;3555;53.248;10.336;2022-08-19T10:21:37;21.20;99.90
7028;DHT22;3555;53.248;10.336;2022-08-19T10:24:05;21.20;99.90
7028;DHT22;3555;53.248;10.336;2022-08-19T10:26:34;21.20;99.90
7028;DHT22;3555;53.248;10.336;2022-08-19T10:29:03;21.30;99.90
7028;DHT22;3555;53.248;10.336;2022-08-19T10:31:32;21.40;99.90
7028;DHT22;3555;53.248;10.336;2022-08-19T10:34:00;21.40;99.90
7028;DHT22;3555;53.248;10.336;2022-08-19T10:36:30;21.50;99.90
7028;DHT22;3555;53.248;10.336;2022-08-19T10:39:02;21.50;99.90
7028;DHT22;3555;53.248;10.336;2022-08-19T10:41:32;21.50;99.90
7028;DHT22;3555;53.248;10.336;2022-08-19T10:44:00;21.70;99.90
7028;DHT22;3555;53.248;10.336;2022-08-19T10:46:29;21.60;99.90
7028;DHT22;3555;53.248;10.336;2022-08-19T10:48:58;21.60;99.90
7028;DHT22;3555;53.248;10.336;2022-08-19T10:51:25;21.60;99.90
7028;DHT22;3555;53.248;10.336;2022-08-19T10:54:11;21.60;99.90
7028;DHT22;3555;53.248;10.336;2022-08-19T10:56:38;21.70;99.90
7028;DHT22;3555;53.248;10.336;2022-08-19T10:59:18;21.50;99.90
7028;DHT22;3555;53.248;10.336;2022-08-19T11:01:46;21.60;99.90
7028;DHT22;3555;53.248;10.336;2022-08-19T11:04:14;21.60;99.90
7028;DHT22;3555;53.248;10.336;2022-08-19T11:06:43;21.60;99.90
7028;DHT22;3555;53.248;10.336;2022-08-19T11:09:15;21.80;99.90
7028;DHT22;3555;53.248;10.336;2022-08-19T11:11:42;21.90;99.90
7028;DHT22;3555;53.248;10.336;2022-08-19T11:14:11;21.90;99.90
7028;DHT22;3555;53.248;10.336;2022-08-19T11:16:39;22.00;99.90
7028;DHT22;3555;53.248;10.336;2022-08-19T11:19:07;22.00;99.90
7028;DHT22;3555;53.248;10.336;2022-08-19T11:21:36;22.00;99.90
7028;DHT22;3555;53.248;10.336;2022-08-19T11:24:06;22.00;99.90
7028;DHT22;3555;53.248;10.336;2022-08-19T11:26:36;22.00;99.90
7028;DHT22;3555;53.248;10.336;2022-08-19T11:29:04;21.80;99.90
7028;DHT22;3555;53.248;10.336;2022-08-19T11:31:33;21.80;99.90
7028;DHT22;3555;53.248;10.336;2022-08-19T11:34:04;21.80;99.90
7028;DHT22;3555;53.248;10.336;2022-08-19T11:36:31;21.80;99.90
7028;DHT22;3555;53.248;10.336;2022-08-19T11:38:59;21.90;99.90
7028;DHT22;3555;53.248;10.336;2022-08-19T11:41:27;22.00;99.90
7028;DHT22;3555;53.248;10.336;2022-08-19T11:43:56;21.90;99.90
7028;DHT22;3555;53.248;10.336;2022-08-19T11:46:24;22.00;99.90
7028;DHT22;3555;53.248;10.336;2022-08-19T11:48:54;22.10;99.90
7028;DHT22;3555;53.248;10.336;2022-08-19T11:51:23;22.20;99.90
7028;DHT22;3555;53.248;10.336;2022-08-19T11:53:51;22.20;99.90
7028;DHT22;3555;53.248;10.336;2022-08-19T11:56:19;22.40;99.90
7028;DHT22;3555;53.248;10.336;2022-08-19T11:58:46;22.40;99.90
7028;DHT22;3555;53.248;10.336;2022-08-19T12:01:16;22.50;99.90
7028;DHT22;3555;53.248;10.336;2022-08-19T12:03:45;22.60;99.90
7028;DHT22;3555;53.248;10.336;2022-08-19T12:06:15;22.50;99.90
7028;DHT22;3555;53.248;10.336;2022-08-19T12:08:43;22.60;99.90
7028;DHT22;3555;53.248;10.336;2022-08-19T12:11:11;22.60;99.90
7028;DHT22;3555;53.248;10.336;2022-08-19T12:13:39;22.60;99.90
7028;DHT22;3555;53.248;10.336;2022-08-19T12:16:12;22.50;99.90
7028;DHT22;3555;53.248;10.336;2022-08-19T12:18:41;22.50;99.90
7028;DHT22;3555;53.248;10.336;2022-08-19T12:21:09;22.50;99.90
7028;DHT22;3555;53.248;10.336;2022-08-19T12:23:39;22.70;99.90
7028;DHT22;3555;53.248;10.336;2022-08-19T12:26:06;22.80;99.90
7028;DHT22;3555;53.248;10.336;2022-08-19T12:28:32;22.80;99.90
7028;DHT22;3555;53.248;10.336;2022-08-19T12:30:59;22.90;99.90
7028;DHT22;3555;53.248;10.336;2022-08-19T12:33:26;23.00;99.90
7028;DHT22;3555;53.248;10.336;2022-08-19T12:36:00;23.00;99.90
7028;DHT22;3555;53.248;10.336;2022-08-19T12:38:27;23.10;99.90
7028;DHT22;3555;53.248;10.336;2022-08-19T12:40:54;23.20;99.90
7028;DHT22;3555;53.248;10.336;2022-08-19T12:43:21;23.20;60.00
7028;DHT22;3555;53.248;10.336;2022-08-19T12:45:48;23.20;42.30
7028;DHT22;3555;53.248;10.336;2022-08-19T12:48:16;23.10;84.90
7028;DHT22;3555;53.248;10.336;2022-08-19T12:50:44;23.20;64.80
7028;DHT22;3555;53.248;10.336;2022-08-19T12:53:14;23.20;88.10
7028;DHT22;3555;53.248;10.336;2022-08-19T12:55:41;23.20;70.80
7028;DHT22;3555;53.248;10.336;2022-08-19T12:58:09;23.10;91.70
7028;DHT22;3555;53.248;10.336;2022-08-19T13:00:38;23.20;99.90
7028;DHT22;3555;53.248;10.336;2022-08-19T13:03:05;23.30;99.90
7028;DHT22;3555;53.248;10.336;2022-08-19T13:05:33;23.30;39.40
7028;DHT22;3555;53.248;10.336;2022-08-19T13:08:01;23.30;44.30
7028;DHT22;3555;53.248;10.336;2022-08-19T13:10:30;23.30;37.00
7028;DHT22;3555;53.248;10.336;2022-08-19T13:13:01;23.30;81.30
7028;DHT22;3555;53.248;10.336;2022-08-19T13:15:28;23.40;88.00
7028;DHT22;3555;53.248;10.336;2022-08-19T13:17:57;23.40;55.10
7028;DHT22;3555;53.248;10.336;2022-08-19T13:20:25;23.50;58.00
7028;DHT22;3555;53.248;10.336;2022-08-19T13:22:52;23.50;51.60
7028;DHT22;3555;53.248;10.336;2022-08-19T13:25:19;23.50;56.90
7028;DHT22;3555;53.248;10.336;2022-08-19T13:27:48;23.60;20.80
7028;DHT22;3555;53.248;10.336;2022-08-19T13:30:18;23.70;96.00
7028;DHT22;3555;53.248;10.336;2022-08-19T13:33:03;23.80;90.00
7028;DHT22;3555;53.248;10.336;2022-08-19T13:35:41;23.90;50.30
7028;DHT22;3555;53.248;10.336;2022-08-19T13:38:09;23.80;1.00
7028;DHT22;3555;53.248;10.336;2022-08-19T13:40:37;24.00;11.40
7028;DHT22;3555;53.248;10.336;2022-08-19T13:43:06;24.10;1.00
7028;DHT22;3555;53.248;10.336;2022-08-19T13:45:34;24.20;1.00
7028;DHT22;3555;53.248;10.336;2022-08-19T13:48:03;24.30;1.00
7028;DHT22;3555;53.248;10.336;2022-08-19T13:50:33;24.50;1.00
7028;DHT22;3555;53.248;10.336;2022-08-19T13:53:00;24.70;1.00
7028;DHT22;3555;53.248;10.336;2022-08-19T13:55:29;24.80;1.00
7028;DHT22;3555;53.248;10.336;2022-08-19T13:57:58;24.90;1.00
7028;DHT22;3555;53.248;10.336;2022-08-19T14:00:28;24.90;1.00
7028;DHT22;3555;53.248;10.336;2022-08-19T14:02:56;25.10;1.00
7028;DHT22;3555;53.248;10.336;2022-08-19T14:05:24;25.10;99.90
7028;DHT22;3555;53.248;10.336;2022-08-19T14:07:51;25.20;99.90
7028;DHT22;3555;53.248;10.336;2022-08-19T14:10:20;25.30;1.00
7028;DHT22;3555;53.248;10.336;2022-08-19T14:12:47;25.40;97.90
7028;DHT22;3555;53.248;10.336;2022-08-19T14:15:15;25.50;99.90
7028;DHT22;3555;53.248;10.336;2022-08-19T14:17:44;25.60;1.00
7028;DHT22;3555;53.248;10.336;2022-08-19T14:20:14;25.70;99.90
7028;DHT22;3555;53.248;10.336;2022-08-19T14:22:42;25.80;1.00
7028;DHT22;3555;53.248;10.336;2022-08-19T14:25:12;26.00;1.00
7028;DHT22;3555;53.248;10.336;2022-08-19T14:27:40;26.10;99.90
7028;DHT22;3555;53.248;10.336;2022-08-19T14:30:09;26.10;1.00
7028;DHT22;3555;53.248;10.336;2022-08-19T14:32:37;26.20;1.00
7028;DHT22;3555;53.248;10.336;2022-08-19T14:35:06;26.30;99.90
7028;DHT22;3555;53.248;10.336;2022-08-19T14:37:34;26.30;1.00
7028;DHT22;3555;53.248;10.336;2022-08-19T14:40:01;26.30;99.90
7028;DHT22;3555;53.248;10.336;2022-08-19T14:42:28;26.40;1.00
7028;DHT22;3555;53.248;10.336;2022-08-19T14:44:57;26.40;99.90
7028;DHT22;3555;53.248;10.336;2022-08-19T14:47:25;26.60;99.90
7028;DHT22;3555;53.248;10.336;2022-08-19T14:49:52;26.60;99.90
7028;DHT22;3555;53.248;10.336;2022-08-19T14:52:20;26.70;1.00
7028;DHT22;3555;53.248;10.336;2022-08-19T14:54:47;26.70;1.00
7028;DHT22;3555;53.248;10.336;2022-08-19T14:57:15;26.70;1.00
7028;DHT22;3555;53.248;10.336;2022-08-19T14:59:42;26.70;8.70
7028;DHT22;3555;53.248;10.336;2022-08-19T15:02:09;26.80;99.90
7028;DHT22;3555;53.248;10.336;2022-08-19T15:04:36;26.80;1.00
7028;DHT22;3555;53.248;10.336;2022-08-19T15:07:03;26.80;1.00
7028;DHT22;3555;53.248;10.336;2022-08-19T15:09:32;26.80;1.00
7028;DHT22;3555;53.248;10.336;2022-08-19T15:11:59;26.90;1.00
7028;DHT22;3555;53.248;10.336;2022-08-19T15:14:27;27.00;1.00
7028;DHT22;3555;53.248;10.336;2022-08-19T15:16:59;27.00;99.90
7028;DHT22;3555;53.248;10.336;2022-08-19T15:19:26;26.90;1.00
7028;DHT22;3555;53.248;10.336;2022-08-19T15:21:53;27.00;99.90
7028;DHT22;3555;53.248;10.336;2022-08-19T15:24:20;27.00;99.90
7028;DHT22;3555;53.248;10.336;2022-08-19T15:26:49;27.00;99.90
7028;DHT22;3555;53.248;10.336;2022-08-19T15:29:16;27.10;99.90
7028;DHT22;3555;53.248;10.336;2022-08-19T15:31:43;27.10;99.90
7028;DHT22;3555;53.248;10.336;2022-08-19T15:34:11;27.00;1.00
7028;DHT22;3555;53.248;10.336;2022-08-19T15:36:38;26.90;99.90
7028;DHT22;3555;53.248;10.336;2022-08-19T15:39:05;27.00;1.00
7028;DHT22;3555;53.248;10.336;2022-08-19T15:41:35;27.00;1.00
7028;DHT22;3555;53.248;10.336;2022-08-19T15:44:07;26.90;99.90
7028;DHT22;3555;53.248;10.336;2022-08-19T15:46:36;27.00;1.00
7028;DHT22;3555;53.248;10.336;2022-08-19T15:49:04;27.10;99.90
7028;DHT22;3555;53.248;10.336;2022-08-19T15:51:34;27.20;99.90
7028;DHT22;3555;53.248;10.336;2022-08-19T15:54:02;27.20;99.90
7028;DHT22;3555;53.248;10.336;2022-08-19T15:56:29;27.20;99.90